sensor_id;sensor_type;location;lat;lon;timestamp;temperature;humidity
38582;DHT22;24349;53.720;10.014;2023-04-03T00:02:10;1.80;99.90
38582;DHT22;24349;53.720;10.014;2023-04-03T00:04:36;1.80;99.90
38582;DHT22;24349;53.720;10.014;2023-04-03T00:07:02;1.70;99.90
38582;DHT22;24349;53.720;10.014;2023-04-03T00:09:27;1.70;99.90
38582;DHT22;24349;53.720;10.014;2023-04-03T00:11:53;1.70;99.90
38582;DHT22;24349;53.720;10.014;2023-04-03T00:14:19;1.70;99.90
38582;DHT22;24349;53.720;10.014;2023-04-03T00:16:44;1.60;99.90
38582;DHT22;24349;53.720;10.014;2023-04-03T00:19:10;1.50;99.90
38582;DHT22;24349;53.720;10.014;2023-04-03T00:21:37;1.50;99.90
38582;DHT22;24349;53.720;10.014;2023-04-03T00:24:03;1.40;99.90
38582;DHT22;24349;53.720;10.014;2023-04-03T00:26:29;1.40;99.90
38582;DHT22;24349;53.720;10.014;2023-04-03T00:28:54;1.40;99.90
38582;DHT22;24349;53.720;10.014;2023-04-03T00:31:20;1.30;99.90
38582;DHT22;24349;53.720;10.014;2023-04-03T00:33:45;1.30;99.90
38582;DHT22;24349;53.720;10.014;2023-04-03T00:36:12;1.30;99.90
38582;DHT22;24349;53.720;10.014;2023-04-03T00:38:38;1.20;99.90
38582;DHT22;24349;53.720;10.014;2023-04-03T00:41:04;1.30;99.90
38582;DHT22;24349;53.720;10.014;2023-04-03T00:43:29;1.30;99.90
38582;DHT22;24349;53.720;10.014;2023-04-03T00:45:57;1.20;99.90
38582;DHT22;24349;53.720;10.014;2023-04-03T00:48:30;1.20;99.90
38582;DHT22;24349;53.720;10.014;2023-04-03T00:50:57;1.20;99.90
38582;DHT22;24349;53.720;10.014;2023-04-03T00:53:27;1.10;99.90
38582;DHT22;24349;53.720;10.014;2023-04-03T00:55:55;1.10;99.90
38582;DHT22;24349;53.720;10.014;2023-04-03T00:58:26;1.10;99.90
38582;DHT22;24349;53.720;10.014;2023-04-03T01:00:55;1.10;99.90
38582;DHT22;24349;53.720;10.014;2023-04-03T01:03:23;1.10;99.90
38582;DHT22;24349;53.720;10.014;2023-04-03T01:05:50;1.10;99.90
38582;DHT22;24349;53.720;10.014;2023-04-03T01:08:16;1.00;99.90
38582;DHT22;24349;53.720;10.014;2023-04-03T01:10:42;1.00;99.90
38582;DHT22;24349;53.720;10.014;2023-04-03T01:13:20;1.00;99.90
38582;DHT22;24349;53.720;10.014;2023-04-03T01:15:46;1.00;99.90
38582;DHT22;24349;53.720;10.014;2023-04-03T01:18:11;1.00;99.90
38582;DHT22;24349;53.720;10.014;2023-04-03T01:23:25;1.00;99.90
38582;DHT22;24349;53.720;10.014;2023-04-03T01:25:54;1.00;99.90
38582;DHT22;24349;53.720;10.014;2023-04-03T01:28:29;1.00;99.90
38582;DHT22;24349;53.720;10.014;2023-04-03T01:33:24;0.80;99.90
38582;DHT22;24349;53.720;10.014;2023-04-03T01:35:49;0.80;99.90
38582;DHT22;24349;53.720;10.014;2023-04-03T01:38:15;0.70;99.90
38582;DHT22;24349;53.720;10.014;2023-04-03T01:40:41;0.70;99.90
38582;DHT22;24349;53.720;10.014;2023-04-03T01:43:07;0.70;99.90
38582;DHT22;24349;53.720;10.014;2023-04-03T01:45:33;0.70;99.90
38582;DHT22;24349;53.720;10.014;2023-04-03T01:47:58;0.60;99.90
38582;DHT22;24349;53.720;10.014;2023-04-03T01:50:24;0.60;99.90
38582;DHT22;24349;53.720;10.014;2023-04-03T01:52:50;0.70;99.90
38582;DHT22;24349;53.720;10.014;2023-04-03T01:55:16;0.70;99.90
38582;DHT22;24349;53.720;10.014;2023-04-03T01:57:41;0.60;99.90
38582;DHT22;24349;53.720;10.014;2023-04-03T02:00:07;0.60;99.90
38582;DHT22;24349;53.720;10.014;2023-04-03T02:02:33;0.60;99.90
38582;DHT22;24349;53.720;10.014;2023-04-03T02:04:59;0.70;99.90
38582;DHT22;24349;53.720;10.014;2023-04-03T02:07:24;0.70;99.90
38582;DHT22;24349;53.720;10.014;2023-04-03T02:09:50;0.70;99.90
38582;DHT22;24349;53.720;10.014;2023-04-03T02:12:16;0.70;99.90
38582;DHT22;24349;53.720;10.014;2023-04-03T02:14:41;0.70;99.90
38582;DHT22;24349;53.720;10.014;2023-04-03T02:17:07;0.70;99.90
38582;DHT22;24349;53.720;10.014;2023-04-03T02:19:34;0.70;99.90
38582;DHT22;24349;53.720;10.014;2023-04-03T02:22:02;0.70;99.90
38582;DHT22;24349;53.720;10.014;2023-04-03T02:24:28;0.70;99.90
38582;DHT22;24349;53.720;10.014;2023-04-03T02:26:54;0.70;99.90
38582;DHT22;24349;53.720;10.014;2023-04-03T02:29:19;0.70;99.90
38582;DHT22;24349;53.720;10.014;2023-04-03T02:31:45;0.60;99.90
38582;DHT22;24349;53.720;10.014;2023-04-03T02:34:11;0.70;99.90
38582;DHT22;24349;53.720;10.014;2023-04-03T02:36:37;0.60;99.90
38582;DHT22;24349;53.720;10.014;2023-04-03T02:39:02;0.60;99.90
38582;DHT22;24349;53.720;10.014;2023-04-03T02:41:29;0.60;99.90
38582;DHT22;24349;53.720;10.014;2023-04-03T02:44:03;0.60;99.90
38582;DHT22;24349;53.720;10.014;2023-04-03T02:46:29;0.60;99.90
38582;DHT22;24349;53.720;10.014;2023-04-03T02:48:54;0.60;99.90
38582;DHT22;24349;53.720;10.014;2023-04-03T02:51:20;0.60;99.90
38582;DHT22;24349;53.720;10.014;2023-04-03T02:53:46;0.60;99.90
38582;DHT22;24349;53.720;10.014;2023-04-03T02:56:12;0.60;99.90
38582;DHT22;24349;53.720;10.014;2023-04-03T02:58:37;0.60;99.90
38582;DHT22;24349;53.720;10.014;2023-04-03T03:01:03;0.60;99.90
38582;DHT22;24349;53.720;10.014;2023-04-03T03:03:29;0.60;99.90
38582;DHT22;24349;53.720;10.014;2023-04-03T03:06:21;0.50;99.90
38582;DHT22;24349;53.720;10.014;2023-04-03T03:08:46;0.50;99.90
38582;DHT22;24349;53.720;10.014;2023-04-03T03:11:12;0.50;99.90
38582;DHT22;24349;53.720;10.014;2023-04-03T03:13:38;0.40;99.90
38582;DHT22;24349;53.720;10.014;2023-04-03T03:16:04;0.30;99.90
38582;DHT22;24349;53.720;10.014;2023-04-03T03:18:30;0.30;99.90
38582;DHT22;24349;53.720;10.014;2023-04-03T03:20:57;0.30;99.90
38582;DHT22;24349;53.720;10.014;2023-04-03T03:23:24;0.30;99.90
38582;DHT22;24349;53.720;10.014;2023-04-03T03:26:05;0.40;99.90
38582;DHT22;24349;53.720;10.014;2023-04-03T03:28:31;0.40;99.90
38582;DHT22;24349;53.720;10.014;2023-04-03T03:30:58;0.40;99.90
38582;DHT22;24349;53.720;10.014;2023-04-03T03:33:24;0.40;99.90
38582;DHT22;24349;53.720;10.014;2023-04-03T03:35:51;0.40;99.90
38582;DHT22;24349;53.720;10.014;2023-04-03T03:38:17;0.40;99.90
38582;DHT22;24349;53.720;10.014;2023-04-03T03:40:42;0.40;99.90
38582;DHT22;24349;53.720;10.014;2023-04-03T03:43:08;0.40;99.90
38582;DHT22;24349;53.720;10.014;2023-04-03T03:45:34;0.40;99.90
38582;DHT22;24349;53.720;10.014;2023-04-03T03:48:00;0.40;99.90
38582;DHT22;24349;53.720;10.014;2023-04-03T03:50:25;0.40;99.90
38582;DHT22;24349;53.720;10.014;2023-04-03T03:52:51;0.40;99.90
38582;DHT22;24349;53.720;10.014;2023-04-03T03:55:17;0.40;99.90
38582;DHT22;24349;53.720;10.014;2023-04-03T03:57:42;0.30;99.90
38582;DHT22;24349;53.720;10.014;2023-04-03T04:00:09;0.30;99.90
38582;DHT22;24349;53.720;10.014;2023-04-03T04:02:35;0.20;99.90
38582;DHT22;24349;53.720;10.014;2023-04-03T04:05:00;0.20;99.90
38582;DHT22;24349;53.720;10.014;2023-04-03T04:07:26;0.20;99.90
38582;DHT22;24349;53.720;10.014;2023-04-03T04:09:53;0.10;99.90
38582;DHT22;24349;53.720;10.014;2023-04-03T04:12:19;0.10;99.90
38582;DHT22;24349;53.720;10.014;2023-04-03T04:14:45;0.10;99.90
38582;DHT22;24349;53.720;10.014;2023-04-03T04:17:12;0.10;99.90
38582;DHT22;24349;53.720;10.014;2023-04-03T04:19:41;0.10;99.90
38582;DHT22;24349;53.720;10.014;2023-04-03T04:22:07;0.10;99.90
38582;DHT22;24349;53.720;10.014;2023-04-03T04:24:33;0.10;99.90
38582;DHT22;24349;53.720;10.014;2023-04-03T04:26:58;0.00;99.90
38582;DHT22;24349;53.720;10.014;2023-04-03T04:29:24;0.00;99.90
38582;DHT22;24349;53.720;10.014;2023-04-03T04:31:50;0.00;99.90
38582;DHT22;24349;53.720;10.014;2023-04-03T04:34:15;0.00;99.90
38582;DHT22;24349;53.720;10.014;2023-04-03T04:36:41;-0.10;99.90
38582;DHT22;24349;53.720;10.014;2023-04-03T04:39:07;0.00;99.90
38582;DHT22;24349;53.720;10.014;2023-04-03T04:41:33;-0.10;99.90
38582;DHT22;24349;53.720;10.014;2023-04-03T04:43:59;-0.10;99.90
38582;DHT22;24349;53.720;10.014;2023-04-03T04:46:25;-0.10;99.90
38582;DHT22;24349;53.720;10.014;2023-04-03T04:48:50;-0.10;99.90
38582;DHT22;24349;53.720;10.014;2023-04-03T04:51:16;-0.10;99.90
38582;DHT22;24349;53.720;10.014;2023-04-03T04:53:42;-0.10;99.90
38582;DHT22;24349;53.720;10.014;2023-04-03T04:56:08;-0.10;99.90
38582;DHT22;24349;53.720;10.014;2023-04-03T04:58:34;-0.10;99.90
38582;DHT22;24349;53.720;10.014;2023-04-03T05:01:04;-0.10;99.90
38582;DHT22;24349;53.720;10.014;2023-04-03T05:03:31;-0.10;99.90
38582;DHT22;24349;53.720;10.014;2023-04-03T05:05:56;-0.10;99.90
38582;DHT22;24349;53.720;10.014;2023-04-03T05:08:22;-0.10;99.90
38582;DHT22;24349;53.720;10.014;2023-04-03T05:10:48;-0.10;99.90
38582;DHT22;24349;53.720;10.014;2023-04-03T05:13:14;-0.10;99.90
38582;DHT22;24349;53.720;10.014;2023-04-03T05:15:39;0.00;99.90
38582;DHT22;24349;53.720;10.014;2023-04-03T05:18:05;0.00;99.90
38582;DHT22;24349;53.720;10.014;2023-04-03T05:20:32;0.10;99.90
38582;DHT22;24349;53.720;10.014;2023-04-03T05:22:58;0.10;99.90
38582;DHT22;24349;53.720;10.014;2023-04-03T05:25:23;0.10;99.90
38582;DHT22;24349;53.720;10.014;2023-04-03T05:27:49;0.20;99.90
38582;DHT22;24349;53.720;10.014;2023-04-03T05:30:15;0.20;99.90
38582;DHT22;24349;53.720;10.014;2023-04-03T05:32:41;0.30;99.90
38582;DHT22;24349;53.720;10.014;2023-04-03T05:35:08;0.50;99.90
38582;DHT22;24349;53.720;10.014;2023-04-03T05:37:34;0.50;99.90
38582;DHT22;24349;53.720;10.014;2023-04-03T05:40:00;0.60;99.90
38582;DHT22;24349;53.720;10.014;2023-04-03T05:42:26;0.70;99.90
38582;DHT22;24349;53.720;10.014;2023-04-03T05:44:51;0.80;99.90
38582;DHT22;24349;53.720;10.014;2023-04-03T05:47:18;0.90;94.60
38582;DHT22;24349;53.720;10.014;2023-04-03T05:49:44;1.00;91.10
38582;DHT22;24349;53.720;10.014;2023-04-03T05:52:24;1.30;94.10
38582;DHT22;24349;53.720;10.014;2023-04-03T05:54:50;1.70;99.90
38582;DHT22;24349;53.720;10.014;2023-04-03T05:57:16;2.20;99.90
38582;DHT22;24349;53.720;10.014;2023-04-03T05:59:45;2.60;99.90
38582;DHT22;24349;53.720;10.014;2023-04-03T06:02:21;3.10;99.90
38582;DHT22;24349;53.720;10.014;2023-04-03T06:04:46;3.60;99.90
38582;DHT22;24349;53.720;10.014;2023-04-03T06:07:20;4.00;54.00
38582;DHT22;24349;53.720;10.014;2023-04-03T06:09:51;4.20;9.30
38582;DHT22;24349;53.720;10.014;2023-04-03T06:12:18;4.40;1.00
38582;DHT22;24349;53.720;10.014;2023-04-03T06:14:43;4.90;1.00
38582;DHT22;24349;53.720;10.014;2023-04-03T06:17:09;5.20;99.90
38582;DHT22;24349;53.720;10.014;2023-04-03T06:19:36;5.40;99.90
38582;DHT22;24349;53.720;10.014;2023-04-03T06:22:02;5.60;1.00
38582;DHT22;24349;53.720;10.014;2023-04-03T06:24:28;5.80;73.30
38582;DHT22;24349;53.720;10.014;2023-04-03T06:26:54;5.90;99.90
38582;DHT22;24349;53.720;10.014;2023-04-03T06:29:20;6.20;99.90
38582;DHT22;24349;53.720;10.014;2023-04-03T06:31:46;6.40;1.00
38582;DHT22;24349;53.720;10.014;2023-04-03T06:34:12;6.60;1.00
38582;DHT22;24349;53.720;10.014;2023-04-03T06:36:39;7.00;11.70
38582;DHT22;24349;53.720;10.014;2023-04-03T06:39:05;7.20;99.90
38582;DHT22;24349;53.720;10.014;2023-04-03T06:41:32;7.40;1.00
38582;DHT22;24349;53.720;10.014;2023-04-03T06:43:58;7.70;5.80
38582;DHT22;24349;53.720;10.014;2023-04-03T06:46:25;7.90;99.20
38582;DHT22;24349;53.720;10.014;2023-04-03T06:48:51;8.30;99.90
38582;DHT22;24349;53.720;10.014;2023-04-03T06:51:22;8.60;99.90
38582;DHT22;24349;53.720;10.014;2023-04-03T06:53:49;8.80;99.90
38582;DHT22;24349;53.720;10.014;2023-04-03T06:56:16;9.30;99.90
38582;DHT22;24349;53.720;10.014;2023-04-03T06:58:42;9.60;99.90
38582;DHT22;24349;53.720;10.014;2023-04-03T07:01:10;9.50;99.90
38582;DHT22;24349;53.720;10.014;2023-04-03T07:03:36;9.80;99.90
38582;DHT22;24349;53.720;10.014;2023-04-03T07:06:03;10.00;99.90
38582;DHT22;24349;53.720;10.014;2023-04-03T07:08:29;10.10;99.90
38582;DHT22;24349;53.720;10.014;2023-04-03T07:10:55;10.30;99.90
38582;DHT22;24349;53.720;10.014;2023-04-03T07:13:20;10.40;99.90
38582;DHT22;24349;53.720;10.014;2023-04-03T07:15:46;10.60;99.90
38582;DHT22;24349;53.720;10.014;2023-04-03T07:18:12;10.70;99.90
38582;DHT22;24349;53.720;10.014;2023-04-03T07:20:38;10.90;99.90
38582;DHT22;24349;53.720;10.014;2023-04-03T07:23:04;11.20;99.90
38582;DHT22;24349;53.720;10.014;2023-04-03T07:25:30;11.30;99.90
38582;DHT22;24349;53.720;10.014;2023-04-03T07:27:57;11.50;99.90
38582;DHT22;24349;53.720;10.014;2023-04-03T07:30:23;11.80;99.90
38582;DHT22;24349;53.720;10.014;2023-04-03T07:32:48;12.10;99.90
38582;DHT22;24349;53.720;10.014;2023-04-03T07:35:14;12.40;99.90
38582;DHT22;24349;53.720;10.014;2023-04-03T07:37:40;12.50;99.90
38582;DHT22;24349;53.720;10.014;2023-04-03T07:40:06;12.80;99.90
38582;DHT22;24349;53.720;10.014;2023-04-03T07:42:34;12.80;99.90
38582;DHT22;24349;53.720;10.014;2023-04-03T07:45:00;13.00;99.90
38582;DHT22;24349;53.720;10.014;2023-04-03T07:47:26;13.40;99.90
38582;DHT22;24349;53.720;10.014;2023-04-03T07:49:52;13.60;99.90
38582;DHT22;24349;53.720;10.014;2023-04-03T07:52:17;13.80;99.90
38582;DHT22;24349;53.720;10.014;2023-04-03T07:54:43;14.20;99.90
38582;DHT22;24349;53.720;10.014;2023-04-03T07:57:08;14.30;99.90
38582;DHT22;24349;53.720;10.014;2023-04-03T07:59:34;14.30;99.90
38582;DHT22;24349;53.720;10.014;2023-04-03T08:02:00;14.10;99.90
38582;DHT22;24349;53.720;10.014;2023-04-03T08:04:25;14.20;99.90
38582;DHT22;24349;53.720;10.014;2023-04-03T08:06:52;14.50;99.90
38582;DHT22;24349;53.720;10.014;2023-04-03T08:09:18;14.30;99.90
38582;DHT22;24349;53.720;10.014;2023-04-03T08:11:45;14.80;99.90
38582;DHT22;24349;53.720;10.014;2023-04-03T08:14:11;15.10;99.40
38582;DHT22;24349;53.720;10.014;2023-04-03T08:16:42;15.10;98.80
38582;DHT22;24349;53.720;10.014;2023-04-03T08:19:08;15.10;98.40
38582;DHT22;24349;53.720;10.014;2023-04-03T08:21:33;15.30;98.40
38582;DHT22;24349;53.720;10.014;2023-04-03T08:23:59;15.70;98.30
38582;DHT22;24349;53.720;10.014;2023-04-03T08:26:25;15.80;98.10
38582;DHT22;24349;53.720;10.014;2023-04-03T08:28:52;15.90;97.10
38582;DHT22;24349;53.720;10.014;2023-04-03T08:31:19;15.40;96.00
38582;DHT22;24349;53.720;10.014;2023-04-03T08:33:45;14.60;97.70
38582;DHT22;24349;53.720;10.014;2023-04-03T08:36:21;14.30;97.50
38582;DHT22;24349;53.720;10.014;2023-04-03T08:38:47;13.40;96.70
38582;DHT22;24349;53.720;10.014;2023-04-03T08:49:25;13.70;98.10
38582;DHT22;24349;53.720;10.014;2023-04-03T08:51:52;14.40;97.50
38582;DHT22;24349;53.720;10.014;2023-04-03T08:54:40;15.30;96.80
38582;DHT22;24349;53.720;10.014;2023-04-03T08:57:07;15.80;97.00
38582;DHT22;24349;53.720;10.014;2023-04-03T08:59:35;15.70;95.00
38582;DHT22;24349;53.720;10.014;2023-04-03T09:02:04;15.10;94.20
38582;DHT22;24349;53.720;10.014;2023-04-03T09:04:36;15.50;95.30
38582;DHT22;24349;53.720;10.014;2023-04-03T09:07:08;15.60;93.70
38582;DHT22;24349;53.720;10.014;2023-04-03T09:09:40;14.80;94.30
38582;DHT22;24349;53.720;10.014;2023-04-03T09:20:39;11.40;94.20
38582;DHT22;24349;53.720;10.014;2023-04-03T09:23:18;10.50;95.20
38582;DHT22;24349;53.720;10.014;2023-04-03T09:25:45;10.70;94.90
38582;DHT22;24349;53.720;10.014;2023-04-03T09:28:11;11.60;95.90
38582;DHT22;24349;53.720;10.014;2023-04-03T09:30:38;12.60;93.60
38582;DHT22;24349;53.720;10.014;2023-04-03T09:33:04;13.30;94.40
38582;DHT22;24349;53.720;10.014;2023-04-03T09:35:36;13.30;92.40
38582;DHT22;24349;53.720;10.014;2023-04-03T09:40:41;13.30;94.40
38582;DHT22;24349;53.720;10.014;2023-04-03T09:43:26;13.90;93.40
38582;DHT22;24349;53.720;10.014;2023-04-03T09:45:51;14.70;94.30
38582;DHT22;24349;53.720;10.014;2023-04-03T09:48:25;15.30;92.30
38582;DHT22;24349;53.720;10.014;2023-04-03T09:53:42;15.60;92.80
38582;DHT22;24349;53.720;10.014;2023-04-03T09:58:45;14.60;91.00
38582;DHT22;24349;53.720;10.014;2023-04-03T10:04:18;15.50;92.50
38582;DHT22;24349;53.720;10.014;2023-04-03T10:06:50;16.00;91.90
38582;DHT22;24349;53.720;10.014;2023-04-03T10:09:30;15.80;90.70
38582;DHT22;24349;53.720;10.014;2023-04-03T10:12:10;14.30;90.10
38582;DHT22;24349;53.720;10.014;2023-04-03T10:14:54;13.20;90.80
38582;DHT22;24349;53.720;10.014;2023-04-03T10:17:36;12.40;91.50
38582;DHT22;24349;53.720;10.014;2023-04-03T10:32:45;11.10;92.70
38582;DHT22;24349;53.720;10.014;2023-04-03T10:40:41;12.30;92.90
38582;DHT22;24349;53.720;10.014;2023-04-03T10:43:48;13.20;92.80
38582;DHT22;24349;53.720;10.014;2023-04-03T10:46:38;13.60;91.30
38582;DHT22;24349;53.720;10.014;2023-04-03T10:52:13;12.20;90.60
38582;DHT22;24349;53.720;10.014;2023-04-03T10:57:12;10.90;91.80
38582;DHT22;24349;53.720;10.014;2023-04-03T10:59:44;10.60;92.30
38582;DHT22;24349;53.720;10.014;2023-04-03T11:05:04;10.00;93.80
38582;DHT22;24349;53.720;10.014;2023-04-03T11:07:40;10.20;93.70
38582;DHT22;24349;53.720;10.014;2023-04-03T11:10:13;10.20;92.90
38582;DHT22;24349;53.720;10.014;2023-04-03T11:12:47;10.30;93.80
38582;DHT22;24349;53.720;10.014;2023-04-03T11:15:17;10.60;92.80
38582;DHT22;24349;53.720;10.014;2023-04-03T11:17:56;10.60;93.60
38582;DHT22;24349;53.720;10.014;2023-04-03T11:20:35;10.40;94.20
38582;DHT22;24349;53.720;10.014;2023-04-03T11:23:04;10.00;93.60
38582;DHT22;24349;53.720;10.014;2023-04-03T11:25:36;9.60;93.30
38582;DHT22;24349;53.720;10.014;2023-04-03T11:28:05;10.00;94.00
38582;DHT22;24349;53.720;10.014;2023-04-03T11:31:10;10.30;93.70
38582;DHT22;24349;53.720;10.014;2023-04-03T11:36:28;13.00;92.00
38582;DHT22;24349;53.720;10.014;2023-04-03T11:38:58;12.90;90.60
38582;DHT22;24349;53.720;10.014;2023-04-03T11:41:28;13.10;92.20
38582;DHT22;24349;53.720;10.014;2023-04-03T11:46:52;15.00;92.70
38582;DHT22;24349;53.720;10.014;2023-04-03T11:50:22;15.70;90.40
38582;DHT22;24349;53.720;10.014;2023-04-03T11:58:12;13.40;89.60
38582;DHT22;24349;53.720;10.014;2023-04-03T12:05:50;11.30;91.30
38582;DHT22;24349;53.720;10.014;2023-04-03T12:13:39;15.20;90.00
38582;DHT22;24349;53.720;10.014;2023-04-03T12:16:27;16.00;88.40
38582;DHT22;24349;53.720;10.014;2023-04-03T12:37:03;13.50;86.90
38582;DHT22;24349;53.720;10.014;2023-04-03T12:39:55;14.10;82.60
38582;DHT22;24349;53.720;10.014;2023-04-03T12:42:44;14.70;85.20
38582;DHT22;24349;53.720;10.014;2023-04-03T12:45:24;15.10;80.20
38582;DHT22;24349;53.720;10.014;2023-04-03T12:47:55;15.10;82.80
38582;DHT22;24349;53.720;10.014;2023-04-03T12:50:25;13.50;83.70
38582;DHT22;24349;53.720;10.014;2023-04-03T12:53:01;13.70;84.20
38582;DHT22;24349;53.720;10.014;2023-04-03T12:55:28;14.80;85.20
38582;DHT22;24349;53.720;10.014;2023-04-03T12:57:53;14.00;83.70
38582;DHT22;24349;53.720;10.014;2023-04-03T13:02:46;13.70;86.60
38582;DHT22;24349;53.720;10.014;2023-04-03T13:05:18;15.10;82.90
38582;DHT22;24349;53.720;10.014;2023-04-03T13:07:50;16.50;84.50
38582;DHT22;24349;53.720;10.014;2023-04-03T13:10:18;17.70;81.20
38582;DHT22;24349;53.720;10.014;2023-04-03T13:12:51;17.60;78.70
38582;DHT22;24349;53.720;10.014;2023-04-03T13:15:19;16.30;81.10
38582;DHT22;24349;53.720;10.014;2023-04-03T13:17:46;17.30;78.80
38582;DHT22;24349;53.720;10.014;2023-04-03T13:23:02;17.40;79.50
38582;DHT22;24349;53.720;10.014;2023-04-03T13:25:35;16.10;78.30
38582;DHT22;24349;53.720;10.014;2023-04-03T13:28:03;15.30;78.70
38582;DHT22;24349;53.720;10.014;2023-04-03T13:30:31;14.50;79.60
38582;DHT22;24349;53.720;10.014;2023-04-03T13:33:01;14.20;80.10
38582;DHT22;24349;53.720;10.014;2023-04-03T13:38:21;14.50;80.10
38582;DHT22;24349;53.720;10.014;2023-04-03T13:40:53;14.60;80.80
38582;DHT22;24349;53.720;10.014;2023-04-03T13:43:25;13.70;79.90
38582;DHT22;24349;53.720;10.014;2023-04-03T13:48:22;14.90;83.30
38582;DHT22;24349;53.720;10.014;2023-04-03T13:53:44;15.20;82.70
38582;DHT22;24349;53.720;10.014;2023-04-03T13:56:31;14.20;82.50
38582;DHT22;24349;53.720;10.014;2023-04-03T14:01:54;12.30;85.00
38582;DHT22;24349;53.720;10.014;2023-04-03T14:04:25;11.50;87.80
38582;DHT22;24349;53.720;10.014;2023-04-03T14:06:51;10.70;88.70
38582;DHT22;24349;53.720;10.014;2023-04-03T14:09:19;12.00;90.10
38582;DHT22;24349;53.720;10.014;2023-04-03T14:11:47;13.20;89.00
38582;DHT22;24349;53.720;10.014;2023-04-03T14:14:17;14.10;86.90
38582;DHT22;24349;53.720;10.014;2023-04-03T14:16:46;14.50;85.60
38582;DHT22;24349;53.720;10.014;2023-04-03T14:19:22;15.50;85.70
38582;DHT22;24349;53.720;10.014;2023-04-03T14:21:48;16.20;84.40
38582;DHT22;24349;53.720;10.014;2023-04-03T14:24:16;16.50;84.00
38582;DHT22;24349;53.720;10.014;2023-04-03T14:26:42;16.80;82.90
38582;DHT22;24349;53.720;10.014;2023-04-03T14:29:10;16.60;80.80
38582;DHT22;24349;53.720;10.014;2023-04-03T14:31:36;15.90;81.10
38582;DHT22;24349;53.720;10.014;2023-04-03T14:34:02;15.30;81.00
38582;DHT22;24349;53.720;10.014;2023-04-03T14:36:28;14.40;83.40
38582;DHT22;24349;53.720;10.014;2023-04-03T14:38:54;13.60;83.00
38582;DHT22;24349;53.720;10.014;2023-04-03T14:41:23;13.20;84.50
38582;DHT22;24349;53.720;10.014;2023-04-03T14:43:50;13.50;86.10
38582;DHT22;24349;53.720;10.014;2023-04-03T14:46:37;14.50;86.40
38582;DHT22;24349;53.720;10.014;2023-04-03T14:49:05;15.30;84.10
38582;DHT22;24349;53.720;10.014;2023-04-03T14:51:37;14.80;85.10
38582;DHT22;24349;53.720;10.014;2023-04-03T14:54:03;13.80;85.00
38582;DHT22;24349;53.720;10.014;2023-04-03T14:56:30;12.80;87.40
38582;DHT22;24349;53.720;10.014;2023-04-03T14:58:59;11.90;87.90
38582;DHT22;24349;53.720;10.014;2023-04-03T15:01:26;11.20;89.40
38582;DHT22;24349;53.720;10.014;2023-04-03T15:03:51;10.50;90.10
38582;DHT22;24349;53.720;10.014;2023-04-03T15:06:17;10.10;90.70
38582;DHT22;24349;53.720;10.014;2023-04-03T15:08:44;10.50;91.50
38582;DHT22;24349;53.720;10.014;2023-04-03T15:11:12;11.30;91.40
38582;DHT22;24349;53.720;10.014;2023-04-03T15:13:38;12.00;89.80
38582;DHT22;24349;53.720;10.014;2023-04-03T15:16:05;12.40;87.30
38582;DHT22;24349;53.720;10.014;2023-04-03T15:18:36;12.30;88.20
38582;DHT22;24349;53.720;10.014;2023-04-03T15:21:03;12.50;88.00
38582;DHT22;24349;53.720;10.014;2023-04-03T15:23:28;12.60;88.50
38582;DHT22;24349;53.720;10.014;2023-04-03T15:25:55;12.80;87.20
38582;DHT22;24349;53.720;10.014;2023-04-03T15:28:33;12.80;87.80
38582;DHT22;24349;53.720;10.014;2023-04-03T15:31:01;12.70;88.80
38582;DHT22;24349;53.720;10.014;2023-04-03T15:33:27;12.20;89.00
38582;DHT22;24349;53.720;10.014;2023-04-03T15:35:52;11.70;88.70
38582;DHT22;24349;53.720;10.014;2023-04-03T15:38:18;11.60;89.50
38582;DHT22;24349;53.720;10.014;2023-04-03T15:40:44;11.80;88.80
38582;DHT22;24349;53.720;10.014;2023-04-03T15:43:10;11.50;89.00
38582;DHT22;24349;53.720;10.014;2023-04-03T15:45:37;10.90;88.80
38582;DHT22;24349;53.720;10.014;2023-04-03T15:48:04;10.40;90.50
38582;DHT22;24349;53.720;10.014;2023-04-03T15:50:31;9.80;90.40
38582;DHT22;24349;53.720;10.014;2023-04-03T15:52:57;9.50;90.80
38582;DHT22;24349;53.720;10.014;2023-04-03T15:55:27;9.20;91.80
38582;DHT22;24349;53.720;10.014;2023-04-03T15:57:53;9.30;92.30
38582;DHT22;24349;53.720;10.014;2023-04-03T16:00:20;9.80;91.50
38582;DHT22;24349;53.720;10.014;2023-04-03T16:02:47;10.40;92.10
38582;DHT22;24349;53.720;10.014;2023-04-03T16:05:15;10.80;91.20
38582;DHT22;24349;53.720;10.014;2023-04-03T16:07:43;10.90;91.30
38582;DHT22;24349;53.720;10.014;2023-04-03T16:10:10;10.50;91.60
38582;DHT22;24349;53.720;10.014;2023-04-03T16:12:36;10.30;91.70
38582;DHT22;24349;53.720;10.014;2023-04-03T16:15:03;10.30;92.40
38582;DHT22;24349;53.720;10.014;2023-04-03T16:17:29;9.90;92.10
38582;DHT22;24349;53.720;10.014;2023-04-03T16:19:55;9.50;93.00
38582;DHT22;24349;53.720;10.014;2023-04-03T16:22:21;8.90;93.50
38582;DHT22;24349;53.720;10.014;2023-04-03T16:24:49;8.60;93.70
38582;DHT22;24349;53.720;10.014;2023-04-03T16:27:15;8.40;94.60
38582;DHT22;24349;53.720;10.014;2023-04-03T16:29:41;8.60;95.40
38582;DHT22;24349;53.720;10.014;2023-04-03T16:32:06;8.80;95.50
38582;DHT22;24349;53.720;10.014;2023-04-03T16:34:32;8.90;94.80
38582;DHT22;24349;53.720;10.014;2023-04-03T16:36:59;8.70;95.10
38582;DHT22;24349;53.720;10.014;2023-04-03T16:39:25;8.40;94.70
38582;DHT22;24349;53.720;10.014;2023-04-03T16:41:50;8.30;95.80
38582;DHT22;24349;53.720;10.014;2023-04-03T16:44:16;8.10;95.70
38582;DHT22;24349;53.720;10.014;2023-04-03T16:46:42;8.10;96.50
38582;DHT22;24349;53.720;10.014;2023-04-03T16:49:07;7.90;96.90
38582;DHT22;24349;53.720;10.014;2023-04-03T16:51:33;7.80;96.80
38582;DHT22;24349;53.720;10.014;2023-04-03T16:53:58;7.70;96.70
38582;DHT22;24349;53.720;10.014;2023-04-03T16:56:24;7.50;96.50
38582;DHT22;24349;53.720;10.014;2023-04-03T16:58:52;7.30;97.40
38582;DHT22;24349;53.720;10.014;2023-04-03T17:01:20;7.20;97.80
38582;DHT22;24349;53.720;10.014;2023-04-03T17:03:47;7.10;98.50
38582;DHT22;24349;53.720;10.014;2023-04-03T17:06:18;6.90;98.60
38582;DHT22;24349;53.720;10.014;2023-04-03T17:08:46;6.90;99.30
38582;DHT22;24349;53.720;10.014;2023-04-03T17:11:12;6.80;99.60
38582;DHT22;24349;53.720;10.014;2023-04-03T17:13:38;6.60;99.70
38582;DHT22;24349;53.720;10.014;2023-04-03T17:16:05;6.50;99.90
38582;DHT22;24349;53.720;10.014;2023-04-03T17:18:33;6.50;99.90
38582;DHT22;24349;53.720;10.014;2023-04-03T17:21:00;6.50;99.90
38582;DHT22;24349;53.720;10.014;2023-04-03T17:23:27;6.50;99.90
38582;DHT22;24349;53.720;10.014;2023-04-03T17:25:56;6.40;99.90
38582;DHT22;24349;53.720;10.014;2023-04-03T17:28:22;6.30;99.90